createdAt,value
2018-05-18T00:02:00.217Z,101675.02
2018-05-18T00:04:27.623Z,101661.47
2018-05-18T00:06:55.049Z,101663.83
2018-05-18T00:09:22.457Z,101659.83
2018-05-18T00:11:49.883Z,101658.25
2018-05-18T00:14:17.293Z,101662.28
2018-05-18T00:16:44.717Z,101664.38
2018-05-18T00:19:12.124Z,101666.68
2018-05-18T00:21:39.549Z,101663.03
2018-05-18T00:24:06.981Z,101658.77
2018-05-18T00:26:34.414Z,101661.48
2018-05-18T00:29:01.820Z,101660.78
2018-05-18T00:31:29.243Z,101667.49
2018-05-18T00:33:56.653Z,101670.45
2018-05-18T00:36:24.079Z,101664.08
2018-05-18T00:38:51.489Z,101667.34
2018-05-18T00:41:18.915Z,101661.38
2018-05-18T00:43:46.320Z,101669.56
2018-05-18T00:46:13.736Z,101669.33
2018-05-18T00:48:41.150Z,101668.27
2018-05-18T00:51:08.577Z,101669.31
2018-05-18T00:53:35.990Z,101669.06
2018-05-18T00:56:03.420Z,101669.89
2018-05-18T00:58:30.832Z,101667.88
2018-05-18T01:00:58.237Z,101667.02
2018-05-18T01:03:25.687Z,101666.36
2018-05-18T01:05:53.092Z,101667.52
2018-05-18T01:08:20.512Z,101674.74
2018-05-18T01:10:47.933Z,101672.50
2018-05-18T01:13:15.361Z,101671.30
2018-05-18T01:15:42.785Z,101671.95
2018-05-18T01:18:10.217Z,101668.46
2018-05-18T01:20:37.629Z,101667.21
2018-05-18T01:23:05.049Z,101670.61
2018-05-18T01:25:32.471Z,101664.41
2018-05-18T01:27:59.893Z,101667.11
2018-05-18T01:30:27.303Z,101669.72
2018-05-18T01:32:54.724Z,101674.84
2018-05-18T01:35:22.137Z,101680.19
2018-05-18T01:37:49.548Z,101678.36
2018-05-18T01:40:16.957Z,101679.69
2018-05-18T01:42:44.372Z,101677.47
2018-05-18T01:45:11.789Z,101669.62
2018-05-18T01:47:39.210Z,101675.95
2018-05-18T01:50:06.624Z,101677.98
2018-05-18T01:52:34.040Z,101675.93
2018-05-18T01:55:01.453Z,101680.09
2018-05-18T01:57:28.877Z,101677.83
2018-05-18T01:59:56.292Z,101683.28
2018-05-18T02:02:23.713Z,101676.44
2018-05-18T02:04:51.131Z,101677.90
2018-05-18T02:07:18.560Z,101674.86
2018-05-18T02:09:45.969Z,101683.20
2018-05-18T02:12:13.384Z,101680.20
2018-05-18T02:14:40.796Z,101680.61
2018-05-18T02:17:08.212Z,101682.34
2018-05-18T02:19:35.628Z,101682.22
2018-05-18T02:22:03.044Z,101678.38
2018-05-18T02:24:30.463Z,101685.45
2018-05-18T02:26:57.889Z,101683.20
2018-05-18T02:29:25.298Z,101681.24
2018-05-18T02:31:52.725Z,101688.69
2018-05-18T02:34:20.136Z,101687.30
2018-05-18T02:36:47.550Z,101685.27
2018-05-18T02:39:14.958Z,101686.92
2018-05-18T02:41:42.370Z,101686.16
2018-05-18T02:44:09.797Z,101694.03
2018-05-18T02:46:37.209Z,101687.28
2018-05-18T02:49:04.631Z,101686.20
2018-05-18T02:51:32.045Z,101686.97
2018-05-18T02:53:59.457Z,101687.86
2018-05-18T02:56:26.868Z,101690.78
2018-05-18T02:58:54.331Z,101690.63
2018-05-18T03:01:21.741Z,101691.19
2018-05-18T03:03:49.157Z,101691.88
2018-05-18T03:06:16.573Z,101696.61
2018-05-18T03:08:43.991Z,101697.19
2018-05-18T03:11:11.397Z,101696.63
2018-05-18T03:13:38.823Z,101691.91
2018-05-18T03:16:06.238Z,101689.53
2018-05-18T03:18:33.654Z,101687.31
2018-05-18T03:21:01.086Z,101689.45
2018-05-18T03:23:28.486Z,101693.99
2018-05-18T03:25:55.887Z,101692.44
2018-05-18T03:28:23.313Z,101689.89
2018-05-18T03:30:50.748Z,101694.39
2018-05-18T03:33:18.173Z,101697.31
2018-05-18T03:35:45.588Z,101693.06
2018-05-18T03:38:13.004Z,101693.14
2018-05-18T03:40:40.422Z,101700.14
2018-05-18T03:43:07.833Z,101704.30
2018-05-18T03:45:35.244Z,101712.08
2018-05-18T03:48:02.656Z,101713.89
2018-05-18T03:50:30.073Z,101714.11
2018-05-18T03:52:57.488Z,101710.45
2018-05-18T03:55:24.898Z,101717.30
2018-05-18T03:57:52.317Z,101716.40
2018-05-18T04:00:19.728Z,101712.84
2018-05-18T04:02:59.135Z,101709.39
2018-05-18T04:05:38.287Z,101710.89
2018-05-18T04:08:17.427Z,101709.82
2018-05-18T04:10:44.844Z,101711.06
2018-05-18T04:13:12.264Z,101715.14
2018-05-18T04:15:39.679Z,101710.91
2018-05-18T04:18:07.100Z,101721.28
2018-05-18T04:20:34.508Z,101716.70
2018-05-18T04:23:01.942Z,101720.62
2018-05-18T04:25:29.349Z,101722.63
2018-05-18T04:27:56.778Z,101721.23
2018-05-18T04:30:24.239Z,101722.55
2018-05-18T04:32:51.601Z,101721.16
2018-05-18T04:35:19.029Z,101716.59
2018-05-18T04:37:46.456Z,101719.71
2018-05-18T04:40:13.888Z,101716.19
2018-05-18T04:42:41.300Z,101717.98
2018-05-18T04:45:08.732Z,101720.55
2018-05-18T04:47:36.140Z,101725.78
2018-05-18T04:50:03.560Z,101728.81
2018-05-18T04:52:30.989Z,101730.26
2018-05-18T04:54:58.413Z,101732.28
2018-05-18T04:57:25.836Z,101726.22
2018-05-18T04:59:53.265Z,101730.95
2018-05-18T05:02:20.668Z,101731.86
2018-05-18T05:04:48.102Z,101725.72
2018-05-18T05:07:15.517Z,101730.37
2018-05-18T05:09:42.934Z,101739.53
2018-05-18T05:12:10.348Z,101741.70
2018-05-18T05:14:37.773Z,101738.30
2018-05-18T05:17:05.220Z,101740.86
2018-05-18T05:19:32.649Z,101743.47
2018-05-18T05:22:00.068Z,101749.52
2018-05-18T05:24:27.481Z,101748.60
2018-05-18T05:26:54.888Z,101752.69
2018-05-18T05:29:22.304Z,101756.10
2018-05-18T05:31:49.716Z,101759.30
2018-05-18T05:34:17.129Z,101760.19
2018-05-18T05:36:44.592Z,101758.64
2018-05-18T05:39:11.960Z,101771.17
2018-05-18T05:41:39.372Z,101769.52
2018-05-18T05:44:06.796Z,101769.42
2018-05-18T05:46:34.208Z,101776.81
2018-05-18T05:49:01.637Z,101779.81
2018-05-18T05:51:29.057Z,101779.73
2018-05-18T05:53:56.501Z,101775.55
2018-05-18T05:56:23.912Z,101781.19
2018-05-18T05:58:51.329Z,101784.27
2018-05-18T06:01:18.739Z,101787.87
2018-05-18T06:03:46.156Z,101780.08
2018-05-18T06:06:13.573Z,101793.67
2018-05-18T06:08:40.978Z,101790.54
2018-05-18T06:11:08.395Z,101793.79
2018-05-18T06:13:35.817Z,101791.59
2018-05-18T06:16:03.233Z,101803.52
2018-05-18T06:18:30.651Z,101804.66
2018-05-18T06:20:58.076Z,101808.07
2018-05-18T06:23:25.496Z,101808.66
2018-05-18T06:25:52.914Z,101807.28
2018-05-18T06:28:20.340Z,101806.85
2018-05-18T06:30:47.748Z,101815.75
2018-05-18T06:33:15.154Z,101821.65
2018-05-18T06:35:42.608Z,101821.13
2018-05-18T06:38:10.021Z,101821.53
2018-05-18T06:40:37.440Z,101824.43
2018-05-18T06:43:04.853Z,101826.38
2018-05-18T06:45:32.272Z,101821.74
2018-05-18T06:47:59.691Z,101831.07
2018-05-18T06:50:27.118Z,101826.60
2018-05-18T06:52:54.528Z,101834.11
2018-05-18T06:55:21.953Z,101833.34
2018-05-18T06:57:49.352Z,101840.04
2018-05-18T07:00:16.779Z,101840.72
2018-05-18T07:02:44.194Z,101840.37
2018-05-18T07:05:11.600Z,101831.56
2018-05-18T07:07:39.012Z,101843.78
2018-05-18T07:10:06.441Z,101840.79
2018-05-18T07:12:33.848Z,101848.11
2018-05-18T07:15:01.264Z,101843.15
2018-05-18T07:17:28.681Z,101847.39
2018-05-18T07:19:56.117Z,101849.61
2018-05-18T07:22:23.527Z,101852.94
2018-05-18T07:24:50.946Z,101851.31
2018-05-18T07:27:18.360Z,101857.13
2018-05-18T07:29:45.798Z,101856.80
2018-05-18T07:32:13.204Z,101852.70
2018-05-18T07:34:40.614Z,101856.54
2018-05-18T07:37:08.044Z,101853.61
2018-05-18T07:39:35.461Z,101857.20
2018-05-18T07:42:02.880Z,101855.07
2018-05-18T07:44:30.301Z,101853.34
2018-05-18T07:46:57.707Z,101856.95
2018-05-18T07:49:25.150Z,101862.68
2018-05-18T07:51:52.541Z,101861.36
2018-05-18T07:54:19.956Z,101856.86
2018-05-18T07:56:47.369Z,101864.78
2018-05-18T07:59:14.780Z,101865.52
2018-05-18T08:01:42.207Z,101864.30
2018-05-18T08:04:09.616Z,101865.88
2018-05-18T08:06:37.029Z,101864.00
2018-05-18T08:09:04.449Z,101865.88
2018-05-18T08:11:31.866Z,101872.75
2018-05-18T08:13:59.278Z,101874.70
2018-05-18T08:16:26.705Z,101867.19
2018-05-18T08:18:54.117Z,101872.48
2018-05-18T08:21:21.546Z,101872.47
2018-05-18T08:23:48.952Z,101871.88
2018-05-18T08:26:16.391Z,101876.72
2018-05-18T08:28:55.373Z,101881.67
2018-05-18T08:31:22.787Z,101885.53
2018-05-18T08:33:50.197Z,101888.05
2018-05-18T08:36:17.616Z,101892.35
2018-05-18T08:38:45.032Z,101894.86
2018-05-18T08:41:12.450Z,101894.22
2018-05-18T08:43:39.868Z,101892.34
2018-05-18T08:46:07.285Z,101891.78
2018-05-18T08:48:34.699Z,101895.34
2018-05-18T08:51:02.117Z,101899.19
2018-05-18T08:53:29.533Z,101892.06
2018-05-18T08:55:56.962Z,101890.59
2018-05-18T08:58:24.369Z,101896.77
2018-05-18T09:00:51.793Z,101892.59
2018-05-18T09:03:19.207Z,101888.26
2018-05-18T09:05:46.632Z,101893.97
2018-05-18T09:08:14.052Z,101897.94
2018-05-18T09:10:41.474Z,101901.10
2018-05-18T09:13:08.887Z,101890.23
2018-05-18T09:15:36.308Z,101899.36
2018-05-18T09:18:03.723Z,101903.30
2018-05-18T09:20:31.137Z,101908.84
2018-05-18T09:22:58.559Z,101908.86
2018-05-18T09:25:25.976Z,101910.58
2018-05-18T09:27:53.391Z,101911.10
2018-05-18T09:30:20.810Z,101910.28
2018-05-18T09:32:48.224Z,101913.02
2018-05-18T09:35:15.638Z,101913.89
2018-05-18T09:37:43.058Z,101920.92
2018-05-18T09:40:10.491Z,101918.00
2018-05-18T09:42:37.909Z,101916.28
2018-05-18T09:45:05.382Z,101919.96
2018-05-18T09:47:32.740Z,101920.80
2018-05-18T09:50:00.161Z,101923.91
2018-05-18T09:52:27.583Z,101924.16
2018-05-18T09:54:55.111Z,101930.38
2018-05-18T09:57:22.420Z,101928.84
2018-05-18T09:59:49.829Z,101922.63
2018-05-18T10:02:17.255Z,101922.14
2018-05-18T10:04:44.653Z,101920.80
2018-05-18T10:07:12.068Z,101924.86
2018-05-18T10:09:39.482Z,101926.98
2018-05-18T10:12:06.896Z,101926.33
2018-05-18T10:14:34.330Z,101935.58
2018-05-18T10:17:01.745Z,101932.06
2018-05-18T10:19:29.156Z,101930.48
2018-05-18T10:21:56.571Z,101938.37
2018-05-18T10:24:23.980Z,101931.25
2018-05-18T10:26:51.392Z,101931.37
2018-05-18T10:29:18.818Z,101934.30
2018-05-18T10:31:46.285Z,101941.27
2018-05-18T10:34:13.697Z,101939.45
2018-05-18T10:36:41.121Z,101946.70
2018-05-18T10:39:08.526Z,101949.23
2018-05-18T10:41:35.948Z,101946.16
2018-05-18T10:44:03.362Z,101947.96
2018-05-18T10:46:30.781Z,101950.29
2018-05-18T10:48:58.194Z,101948.33
2018-05-18T10:51:25.625Z,101953.64
2018-05-18T10:53:53.039Z,101956.31
2018-05-18T10:56:20.445Z,101951.74
2018-05-18T10:58:47.868Z,101955.86
2018-05-18T11:01:15.289Z,101956.05
2018-05-18T11:03:42.700Z,101960.17
2018-05-18T11:06:10.107Z,101958.91
2018-05-18T11:08:37.529Z,101956.24
2018-05-18T11:11:04.947Z,101960.62
2018-05-18T11:13:32.372Z,101964.77
2018-05-18T11:15:59.777Z,101960.67
2018-05-18T11:18:27.205Z,101961.53
2018-05-18T11:20:54.622Z,101963.34
2018-05-18T11:23:22.037Z,101970.08
2018-05-18T11:25:49.452Z,101961.08
2018-05-18T11:28:16.885Z,101959.12
2018-05-18T11:30:44.311Z,101960.62
2018-05-18T11:33:11.795Z,101961.33
2018-05-18T11:35:39.246Z,101963.60
2018-05-18T11:38:06.671Z,101955.11
2018-05-18T11:40:34.076Z,101958.55
2018-05-18T11:43:01.506Z,101955.83
2018-05-18T11:45:28.912Z,101967.70
2018-05-18T11:47:57.320Z,101966.59
2018-05-18T11:50:24.728Z,101969.79
2018-05-18T11:52:52.152Z,101977.25
2018-05-18T11:55:19.589Z,101970.85
2018-05-18T11:57:46.991Z,101967.66
2018-05-18T12:00:14.410Z,101972.07
2018-05-18T12:02:41.815Z,101981.28
2018-05-18T12:05:09.231Z,101976.47
2018-05-18T12:07:36.643Z,101973.84
2018-05-18T12:10:04.055Z,101977.97
2018-05-18T12:12:31.483Z,101976.45
2018-05-18T12:14:58.892Z,101974.77
2018-05-18T12:17:26.316Z,101980.36
2018-05-18T12:19:53.733Z,101982.98
2018-05-18T12:22:21.157Z,101980.05
2018-05-18T12:24:48.583Z,101978.36
2018-05-18T12:27:16.020Z,101981.26
2018-05-18T12:29:43.437Z,101973.97
2018-05-18T12:32:10.860Z,101975.98
2018-05-18T12:34:38.289Z,101976.25
2018-05-18T12:37:05.700Z,101981.50
2018-05-18T12:39:33.113Z,101978.98
2018-05-18T12:42:00.531Z,101978.54
2018-05-18T12:44:27.965Z,101985.83
2018-05-18T12:46:55.380Z,101972.50
2018-05-18T12:49:22.804Z,101981.02
2018-05-18T12:51:50.223Z,101984.05
2018-05-18T12:54:17.645Z,101978.28
2018-05-18T12:56:45.063Z,101983.13
2018-05-18T12:59:12.485Z,101987.98
2018-05-18T13:01:39.897Z,101987.11
2018-05-18T13:04:07.316Z,101983.94
2018-05-18T13:06:34.724Z,101986.26
2018-05-18T13:09:02.193Z,101989.48
2018-05-18T13:11:29.653Z,101993.55
2018-05-18T13:13:57.071Z,101989.37
2018-05-18T13:16:24.483Z,101990.95
2018-05-18T13:18:51.912Z,101981.45
2018-05-18T13:21:19.328Z,101983.81
2018-05-18T13:23:46.744Z,101979.67
2018-05-18T13:26:14.153Z,101982.96
2018-05-18T13:28:41.626Z,101983.74
2018-05-18T13:31:09.034Z,101976.13
2018-05-18T13:33:36.459Z,101979.64
2018-05-18T13:36:03.867Z,101974.56
2018-05-18T13:38:31.374Z,101974.11
2018-05-18T13:40:58.710Z,101979.44
2018-05-18T13:43:26.119Z,101976.79
2018-05-18T13:45:53.536Z,101979.34
2018-05-18T13:48:20.956Z,101982.34
2018-05-18T13:50:48.369Z,101981.40
2018-05-18T13:53:15.781Z,101981.52
2018-05-18T13:55:43.205Z,101985.45
2018-05-18T13:58:10.612Z,101978.45
2018-05-18T14:00:38.033Z,101978.16
2018-05-18T14:03:05.442Z,101983.02
2018-05-18T14:05:32.873Z,101978.35
2018-05-18T14:08:00.284Z,101974.33
2018-05-18T14:10:27.718Z,101969.73
2018-05-18T14:12:55.129Z,101974.17
2018-05-18T14:15:22.548Z,101972.02
2018-05-18T14:17:56.979Z,101975.75
2018-05-18T14:20:25.521Z,101968.20
2018-05-18T14:22:52.928Z,101972.65
2018-05-18T14:25:20.349Z,101974.58
2018-05-18T14:27:47.785Z,101974.73
2018-05-18T14:30:15.204Z,101970.62
2018-05-18T14:32:42.609Z,101964.25
2018-05-18T14:35:10.049Z,101971.79
2018-05-18T14:37:37.453Z,101970.97
2018-05-18T14:40:04.880Z,101973.95
2018-05-18T14:42:32.283Z,101961.85
2018-05-18T14:44:59.716Z,101969.73
2018-05-18T14:47:27.133Z,101967.88
2018-05-18T14:49:54.553Z,101968.44
2018-05-18T14:52:21.989Z,101963.84
2018-05-18T14:54:49.404Z,101961.73
2018-05-18T14:57:16.827Z,101961.15
2018-05-18T14:59:44.298Z,101954.65
2018-05-18T15:02:11.657Z,101963.80
2018-05-18T15:04:39.081Z,101957.37
2018-05-18T15:07:11.385Z,101959.11
2018-05-18T15:09:42.839Z,101965.83
2018-05-18T15:12:14.766Z,101959.59
2018-05-18T15:14:45.474Z,101969.78
2018-05-18T15:17:12.879Z,101965.38
2018-05-18T15:19:40.307Z,101966.09
2018-05-18T15:22:07.715Z,101963.23
2018-05-18T15:24:35.135Z,101964.00
2018-05-18T15:27:02.549Z,101966.53
2018-05-18T15:29:29.982Z,101966.44
2018-05-18T15:31:57.395Z,101967.32
2018-05-18T15:34:24.811Z,101974.70
2018-05-18T15:36:52.226Z,101973.00
2018-05-18T15:39:19.639Z,101976.08
2018-05-18T15:41:52.184Z,101974.64
2018-05-18T15:44:35.255Z,101977.59
2018-05-18T15:47:06.781Z,101977.94
2018-05-18T15:49:40.231Z,101982.51
2018-05-18T15:52:12.745Z,101984.34
2018-05-18T15:54:43.193Z,101985.90
2018-05-18T15:57:13.851Z,101990.52
2018-05-18T15:59:45.861Z,101990.30
2018-05-18T16:02:23.645Z,101982.37
2018-05-18T16:04:58.033Z,101975.47
2018-05-18T16:07:28.827Z,101982.12
2018-05-18T16:09:56.245Z,101981.01
2018-05-18T16:12:23.648Z,101974.52
2018-05-18T16:14:51.135Z,101974.02
2018-05-18T16:17:18.528Z,101978.73
2018-05-18T16:19:45.970Z,101986.17
2018-05-18T16:22:13.400Z,101977.11
2018-05-18T16:24:40.835Z,101977.65
2018-05-18T16:27:08.272Z,101982.21
2018-05-18T16:29:35.673Z,101979.52
2018-05-18T16:32:03.099Z,101977.72
2018-05-18T16:34:30.508Z,101973.56
2018-05-18T16:36:57.924Z,101973.75
2018-05-18T16:39:25.333Z,101975.83
2018-05-18T16:41:52.756Z,101981.70
2018-05-18T16:44:20.176Z,101980.94
2018-05-18T16:46:47.601Z,101986.88
2018-05-18T16:49:15.017Z,101984.75
2018-05-18T16:51:42.450Z,101982.63
2018-05-18T16:54:09.868Z,101977.81
2018-05-18T16:56:37.283Z,101975.14
2018-05-18T16:59:04.695Z,101984.17
2018-05-18T17:01:32.111Z,101983.63
2018-05-18T17:03:59.524Z,101983.44
2018-05-18T17:06:27.078Z,101981.73
2018-05-18T17:08:54.472Z,101984.56
2018-05-18T17:11:21.890Z,101988.75
2018-05-18T17:13:49.303Z,101984.11
2018-05-18T17:16:16.723Z,101988.63
2018-05-18T17:18:44.121Z,101985.17
2018-05-18T17:21:11.551Z,101992.69
2018-05-18T17:23:38.955Z,101990.25
2018-05-18T17:26:06.372Z,101990.79
2018-05-18T17:28:33.793Z,101988.34
2018-05-18T17:31:01.208Z,101992.08
2018-05-18T17:33:28.612Z,101984.35
2018-05-18T17:35:56.032Z,101985.83
2018-05-18T17:38:23.445Z,101987.81
2018-05-18T17:40:50.901Z,101990.73
2018-05-18T17:43:18.309Z,101985.06
2018-05-18T17:45:45.738Z,101992.58
2018-05-18T17:48:13.140Z,101992.80
2018-05-18T17:50:40.561Z,101992.71
2018-05-18T17:53:08.024Z,101992.20
2018-05-18T17:55:48.013Z,101999.37
2018-05-18T17:58:15.463Z,101998.48
2018-05-18T18:00:42.880Z,101998.80
2018-05-18T18:03:10.336Z,102001.34
2018-05-18T18:05:37.752Z,101988.61
2018-05-18T18:08:05.165Z,101998.55
2018-05-18T18:10:32.584Z,101993.36
2018-05-18T18:13:00.002Z,101993.70
2018-05-18T18:15:27.409Z,101997.14
2018-05-18T18:17:55.640Z,101998.28
2018-05-18T18:20:23.045Z,101995.34
2018-05-18T18:22:50.468Z,101998.77
2018-05-18T18:25:17.876Z,102002.77
2018-05-18T18:27:45.297Z,101999.82
2018-05-18T18:30:12.701Z,102001.05
2018-05-18T18:32:44.377Z,102005.70
2018-05-18T18:35:14.878Z,102005.46
2018-05-18T18:37:42.336Z,102012.56
2018-05-18T18:40:09.744Z,102005.92
2018-05-18T18:42:37.160Z,102008.70
2018-05-18T18:45:04.566Z,102005.25
2018-05-18T18:47:31.985Z,102008.25
2018-05-18T18:49:59.388Z,102016.28
2018-05-18T18:52:26.805Z,102012.09
2018-05-18T18:54:54.218Z,102011.59
2018-05-18T18:57:21.637Z,102020.44
2018-05-18T18:59:49.049Z,102024.55
2018-05-18T19:02:16.464Z,102025.39
2018-05-18T19:04:43.889Z,102025.42
2018-05-18T19:07:11.303Z,102032.30
2018-05-18T19:09:38.708Z,102028.95
2018-05-18T19:12:06.138Z,102031.73
2018-05-18T19:14:38.330Z,102037.30
2018-05-18T19:17:08.444Z,102041.30
2018-05-18T19:19:39.654Z,102044.75
2018-05-18T19:22:10.439Z,102049.56
2018-05-18T19:24:42.634Z,102045.80
2018-05-18T19:27:19.686Z,102043.73
2018-05-18T19:29:51.169Z,102052.09
2018-05-18T19:32:21.632Z,102049.91
2018-05-18T19:34:51.374Z,102046.14
2018-05-18T19:37:22.209Z,102053.60
2018-05-18T19:39:50.425Z,102048.12
2018-05-18T19:42:19.919Z,102049.36
2018-05-18T19:44:48.675Z,102047.97
2018-05-18T19:47:19.236Z,102052.14
2018-05-18T19:49:54.322Z,102056.31
2018-05-18T19:52:23.821Z,102060.31
2018-05-18T19:54:55.086Z,102055.16
2018-05-18T19:57:25.682Z,102058.84
2018-05-18T19:59:55.715Z,102057.61
2018-05-18T20:02:26.198Z,102058.78
2018-05-18T20:04:57.497Z,102054.53
2018-05-18T20:07:29.571Z,102055.78
2018-05-18T20:10:00.444Z,102053.48
2018-05-18T20:12:32.412Z,102049.96
2018-05-18T20:15:05.852Z,102052.52
2018-05-18T20:17:37.237Z,102050.39
2018-05-18T20:20:06.334Z,102045.39
2018-05-18T20:22:34.341Z,102049.98
2018-05-18T20:25:03.776Z,102056.14
2018-05-18T20:27:31.205Z,102055.66
2018-05-18T20:29:58.612Z,102062.77
2018-05-18T20:32:26.024Z,102065.30
2018-05-18T20:34:53.432Z,102060.89
2018-05-18T20:37:20.848Z,102059.84
2018-05-18T20:39:48.267Z,102063.02
2018-05-18T20:42:15.684Z,102073.27
2018-05-18T20:44:43.108Z,102073.50
2018-05-18T20:47:10.533Z,102079.00
2018-05-18T20:49:37.948Z,102078.78
2018-05-18T20:52:05.369Z,102076.67
2018-05-18T20:54:32.772Z,102072.98
2018-05-18T20:57:00.181Z,102073.40
2018-05-18T20:59:27.608Z,102077.66
2018-05-18T21:01:55.016Z,102076.11
2018-05-18T21:04:22.434Z,102074.72
2018-05-18T21:06:49.845Z,102070.84
2018-05-18T21:09:17.263Z,102070.92
2018-05-18T21:11:44.678Z,102070.70
2018-05-18T21:14:12.096Z,102069.64
2018-05-18T21:16:39.513Z,102066.94
2018-05-18T21:19:06.930Z,102067.73
2018-05-18T21:21:34.342Z,102067.91
2018-05-18T21:24:01.760Z,102069.30
2018-05-18T21:26:29.169Z,102075.28
2018-05-18T21:28:56.588Z,102075.02
2018-05-18T21:31:24.008Z,102078.63
2018-05-18T21:33:51.420Z,102074.23
2018-05-18T21:36:18.828Z,102081.34
2018-05-18T21:38:46.259Z,102068.82
2018-05-18T21:41:13.661Z,102066.38
2018-05-18T21:43:41.087Z,102072.92
2018-05-18T21:46:08.497Z,102069.16
2018-05-18T21:48:35.917Z,102072.36
2018-05-18T21:51:03.319Z,102077.50
2018-05-18T21:53:30.733Z,102079.23
2018-05-18T21:55:58.139Z,102081.68
2018-05-18T21:58:25.611Z,102075.85
2018-05-18T22:00:52.972Z,102080.44
2018-05-18T22:03:20.393Z,102082.81
2018-05-18T22:05:47.800Z,102083.22
2018-05-18T22:08:15.226Z,102083.41
2018-05-18T22:10:42.640Z,102081.34
2018-05-18T22:13:10.062Z,102079.31
2018-05-18T22:15:37.477Z,102075.47
2018-05-18T22:18:04.897Z,102073.48
2018-05-18T22:20:32.301Z,102073.67
2018-05-18T22:22:59.729Z,102072.43
2018-05-18T22:25:27.138Z,102075.14
2018-05-18T22:27:54.565Z,102076.53
2018-05-18T22:30:21.977Z,102073.52
2018-05-18T22:32:49.384Z,102071.30
2018-05-18T22:35:16.801Z,102069.91
2018-05-18T22:37:44.209Z,102077.84
2018-05-18T22:40:11.623Z,102072.61
2018-05-18T22:42:39.035Z,102070.55
2018-05-18T22:45:06.457Z,102075.62
2018-05-18T22:47:33.868Z,102079.87
2018-05-18T22:50:01.292Z,102072.12
2018-05-18T22:52:28.705Z,102078.02
2018-05-18T22:54:56.120Z,102072.61
2018-05-18T22:57:23.524Z,102074.22
2018-05-18T22:59:50.944Z,102074.00
2018-05-18T23:02:18.360Z,102071.63
2018-05-18T23:04:45.779Z,102069.26
2018-05-18T23:07:13.188Z,102071.21
2018-05-18T23:09:40.603Z,102065.50
2018-05-18T23:12:08.021Z,102065.31
2018-05-18T23:14:35.441Z,102069.26
2018-05-18T23:17:02.858Z,102062.05
2018-05-18T23:19:30.280Z,102056.73
2018-05-18T23:21:57.696Z,102061.05
2018-05-18T23:24:25.121Z,102066.88
2018-05-18T23:26:52.535Z,102060.57
2018-05-18T23:29:19.958Z,102072.37
2018-05-18T23:31:47.426Z,102075.56
2018-05-18T23:34:14.780Z,102068.76
2018-05-18T23:36:42.207Z,102058.95
2018-05-18T23:39:09.620Z,102064.91
2018-05-18T23:41:37.032Z,102066.88
2018-05-18T23:44:04.453Z,102068.11
2018-05-18T23:46:31.852Z,102063.76
2018-05-18T23:48:59.276Z,102052.48
2018-05-18T23:51:26.705Z,102066.05
2018-05-18T23:53:54.119Z,102064.58
2018-05-18T23:56:21.541Z,102069.64
2018-05-18T23:58:48.956Z,102069.90
